sensor_id;sensor_type;location;lat;lon;timestamp;P1;durP1;ratioP1;P2;durP2;ratioP2
10872;SDS011;34586;53.616;10.032;2023-07-31T00:00:43;5.80;;;1.90;;
10872;SDS011;34586;53.616;10.032;2023-07-31T00:03:09;6.23;;;2.30;;
10872;SDS011;34586;53.616;10.032;2023-07-31T00:05:35;4.20;;;1.90;;
10872;SDS011;34586;53.616;10.032;2023-07-31T00:08:01;4.43;;;2.30;;
10872;SDS011;34586;53.616;10.032;2023-07-31T00:10:26;3.43;;;1.80;;
10872;SDS011;34586;53.616;10.032;2023-07-31T00:12:52;3.30;;;1.90;;
10872;SDS011;34586;53.616;10.032;2023-07-31T00:15:17;4.50;;;1.93;;
10872;SDS011;34586;53.616;10.032;2023-07-31T00:17:43;6.53;;;2.30;;
10872;SDS011;34586;53.616;10.032;2023-07-31T00:20:08;9.30;;;2.30;;
10872;SDS011;34586;53.616;10.032;2023-07-31T00:22:35;3.83;;;2.03;;
10872;SDS011;34586;53.616;10.032;2023-07-31T00:25:01;8.37;;;2.00;;
10872;SDS011;34586;53.616;10.032;2023-07-31T00:27:27;4.27;;;1.80;;
10872;SDS011;34586;53.616;10.032;2023-07-31T00:29:52;4.53;;;1.53;;
10872;SDS011;34586;53.616;10.032;2023-07-31T00:32:18;4.67;;;1.80;;
10872;SDS011;34586;53.616;10.032;2023-07-31T00:34:43;4.40;;;1.97;;
10872;SDS011;34586;53.616;10.032;2023-07-31T00:37:09;4.07;;;1.70;;
10872;SDS011;34586;53.616;10.032;2023-07-31T00:39:34;4.80;;;1.90;;
10872;SDS011;34586;53.616;10.032;2023-07-31T00:42:00;5.80;;;2.00;;
10872;SDS011;34586;53.616;10.032;2023-07-31T00:44:26;7.13;;;2.30;;
10872;SDS011;34586;53.616;10.032;2023-07-31T00:46:52;6.27;;;1.90;;
10872;SDS011;34586;53.616;10.032;2023-07-31T00:49:18;7.47;;;1.80;;
10872;SDS011;34586;53.616;10.032;2023-07-31T00:51:44;6.77;;;2.50;;
10872;SDS011;34586;53.616;10.032;2023-07-31T00:54:09;6.93;;;2.10;;
10872;SDS011;34586;53.616;10.032;2023-07-31T00:56:36;5.97;;;2.00;;
10872;SDS011;34586;53.616;10.032;2023-07-31T00:59:02;5.17;;;1.80;;
10872;SDS011;34586;53.616;10.032;2023-07-31T01:01:28;6.70;;;2.03;;
10872;SDS011;34586;53.616;10.032;2023-07-31T01:03:54;9.30;;;2.10;;
10872;SDS011;34586;53.616;10.032;2023-07-31T01:06:24;8.30;;;2.10;;
10872;SDS011;34586;53.616;10.032;2023-07-31T01:11:49;8.30;;;2.57;;
10872;SDS011;34586;53.616;10.032;2023-07-31T01:14:18;9.13;;;2.00;;
10872;SDS011;34586;53.616;10.032;2023-07-31T01:16:43;4.57;;;1.90;;
10872;SDS011;34586;53.616;10.032;2023-07-31T01:19:09;8.87;;;2.13;;
10872;SDS011;34586;53.616;10.032;2023-07-31T01:27:17;9.30;;;2.40;;
10872;SDS011;34586;53.616;10.032;2023-07-31T01:30:09;8.13;;;2.13;;
10872;SDS011;34586;53.616;10.032;2023-07-31T01:32:42;4.80;;;2.10;;
10872;SDS011;34586;53.616;10.032;2023-07-31T01:35:08;4.77;;;1.70;;
10872;SDS011;34586;53.616;10.032;2023-07-31T01:37:34;4.97;;;2.00;;
10872;SDS011;34586;53.616;10.032;2023-07-31T01:40:00;6.00;;;2.10;;
10872;SDS011;34586;53.616;10.032;2023-07-31T01:42:26;6.37;;;2.20;;
10872;SDS011;34586;53.616;10.032;2023-07-31T01:44:51;8.30;;;2.57;;
10872;SDS011;34586;53.616;10.032;2023-07-31T01:47:17;6.53;;;2.67;;
10872;SDS011;34586;53.616;10.032;2023-07-31T01:49:43;5.53;;;2.30;;
10872;SDS011;34586;53.616;10.032;2023-07-31T01:52:08;4.50;;;2.40;;
10872;SDS011;34586;53.616;10.032;2023-07-31T01:54:34;10.63;;;2.67;;
10872;SDS011;34586;53.616;10.032;2023-07-31T01:57:01;6.40;;;2.10;;
10872;SDS011;34586;53.616;10.032;2023-07-31T01:59:27;4.43;;;2.30;;
10872;SDS011;34586;53.616;10.032;2023-07-31T02:01:53;4.90;;;2.10;;
10872;SDS011;34586;53.616;10.032;2023-07-31T02:04:19;5.67;;;2.57;;
10872;SDS011;34586;53.616;10.032;2023-07-31T02:06:45;7.73;;;2.20;;
10872;SDS011;34586;53.616;10.032;2023-07-31T02:09:10;5.70;;;2.43;;
10872;SDS011;34586;53.616;10.032;2023-07-31T02:11:36;9.47;;;2.90;;
10872;SDS011;34586;53.616;10.032;2023-07-31T02:14:02;4.63;;;1.93;;
10872;SDS011;34586;53.616;10.032;2023-07-31T02:16:27;7.53;;;2.77;;
10872;SDS011;34586;53.616;10.032;2023-07-31T02:18:53;5.93;;;2.27;;
10872;SDS011;34586;53.616;10.032;2023-07-31T02:21:18;7.27;;;2.57;;
10872;SDS011;34586;53.616;10.032;2023-07-31T02:23:44;6.00;;;2.20;;
10872;SDS011;34586;53.616;10.032;2023-07-31T02:26:09;6.90;;;2.13;;
10872;SDS011;34586;53.616;10.032;2023-07-31T02:28:35;6.70;;;1.70;;
10872;SDS011;34586;53.616;10.032;2023-07-31T02:31:01;5.33;;;2.40;;
10872;SDS011;34586;53.616;10.032;2023-07-31T02:33:26;5.17;;;2.47;;
10872;SDS011;34586;53.616;10.032;2023-07-31T02:35:52;3.73;;;1.70;;
10872;SDS011;34586;53.616;10.032;2023-07-31T02:38:17;6.00;;;2.27;;
10872;SDS011;34586;53.616;10.032;2023-07-31T02:40:43;6.70;;;2.00;;
10872;SDS011;34586;53.616;10.032;2023-07-31T02:43:09;6.03;;;2.03;;
10872;SDS011;34586;53.616;10.032;2023-07-31T02:45:34;4.73;;;2.00;;
10872;SDS011;34586;53.616;10.032;2023-07-31T02:48:00;5.80;;;2.07;;
10872;SDS011;34586;53.616;10.032;2023-07-31T02:50:26;3.83;;;1.87;;
10872;SDS011;34586;53.616;10.032;2023-07-31T02:52:52;6.57;;;2.10;;
10872;SDS011;34586;53.616;10.032;2023-07-31T02:55:18;4.43;;;2.00;;
10872;SDS011;34586;53.616;10.032;2023-07-31T02:57:44;7.57;;;2.20;;
10872;SDS011;34586;53.616;10.032;2023-07-31T03:00:09;4.63;;;2.17;;
10872;SDS011;34586;53.616;10.032;2023-07-31T03:02:35;4.67;;;2.23;;
10872;SDS011;34586;53.616;10.032;2023-07-31T03:05:00;3.80;;;2.30;;
10872;SDS011;34586;53.616;10.032;2023-07-31T03:07:26;5.13;;;2.00;;
10872;SDS011;34586;53.616;10.032;2023-07-31T03:09:52;4.63;;;2.20;;
10872;SDS011;34586;53.616;10.032;2023-07-31T03:12:17;4.10;;;2.00;;
10872;SDS011;34586;53.616;10.032;2023-07-31T03:14:44;8.67;;;2.50;;
10872;SDS011;34586;53.616;10.032;2023-07-31T03:17:10;3.83;;;2.00;;
10872;SDS011;34586;53.616;10.032;2023-07-31T03:19:35;4.57;;;2.33;;
10872;SDS011;34586;53.616;10.032;2023-07-31T03:22:01;3.60;;;2.00;;
10872;SDS011;34586;53.616;10.032;2023-07-31T03:24:27;5.60;;;2.10;;
10872;SDS011;34586;53.616;10.032;2023-07-31T03:26:53;5.67;;;2.13;;
10872;SDS011;34586;53.616;10.032;2023-07-31T03:29:19;4.60;;;2.10;;
10872;SDS011;34586;53.616;10.032;2023-07-31T03:31:44;4.70;;;2.17;;
10872;SDS011;34586;53.616;10.032;2023-07-31T03:34:10;4.27;;;2.30;;
10872;SDS011;34586;53.616;10.032;2023-07-31T03:36:36;5.13;;;2.27;;
10872;SDS011;34586;53.616;10.032;2023-07-31T03:39:01;3.83;;;2.23;;
10872;SDS011;34586;53.616;10.032;2023-07-31T03:41:28;4.93;;;2.00;;
10872;SDS011;34586;53.616;10.032;2023-07-31T03:43:53;3.80;;;2.10;;
10872;SDS011;34586;53.616;10.032;2023-07-31T03:46:22;3.27;;;1.90;;
10872;SDS011;34586;53.616;10.032;2023-07-31T03:48:49;4.17;;;2.30;;
10872;SDS011;34586;53.616;10.032;2023-07-31T03:51:15;6.20;;;2.30;;
10872;SDS011;34586;53.616;10.032;2023-07-31T03:53:41;4.13;;;2.00;;
10872;SDS011;34586;53.616;10.032;2023-07-31T03:56:07;4.37;;;2.27;;
10872;SDS011;34586;53.616;10.032;2023-07-31T03:58:32;2.27;;;2.07;;
10872;SDS011;34586;53.616;10.032;2023-07-31T04:00:58;5.77;;;2.10;;
10872;SDS011;34586;53.616;10.032;2023-07-31T04:03:24;3.43;;;2.20;;
10872;SDS011;34586;53.616;10.032;2023-07-31T04:05:49;3.83;;;1.93;;
10872;SDS011;34586;53.616;10.032;2023-07-31T04:08:15;3.03;;;2.20;;
10872;SDS011;34586;53.616;10.032;2023-07-31T04:10:40;2.70;;;2.27;;
10872;SDS011;34586;53.616;10.032;2023-07-31T04:13:06;4.67;;;2.00;;
10872;SDS011;34586;53.616;10.032;2023-07-31T04:15:31;4.73;;;1.63;;
10872;SDS011;34586;53.616;10.032;2023-07-31T04:17:57;2.50;;;1.60;;
10872;SDS011;34586;53.616;10.032;2023-07-31T04:20:22;1.97;;;1.83;;
10872;SDS011;34586;53.616;10.032;2023-07-31T04:22:48;3.53;;;2.00;;
10872;SDS011;34586;53.616;10.032;2023-07-31T04:25:14;3.57;;;2.03;;
10872;SDS011;34586;53.616;10.032;2023-07-31T04:27:40;4.10;;;2.10;;
10872;SDS011;34586;53.616;10.032;2023-07-31T04:30:06;1.63;;;1.53;;
10872;SDS011;34586;53.616;10.032;2023-07-31T04:32:32;3.10;;;1.80;;
10872;SDS011;34586;53.616;10.032;2023-07-31T04:34:57;2.27;;;1.70;;
10872;SDS011;34586;53.616;10.032;2023-07-31T04:37:23;2.60;;;1.90;;
10872;SDS011;34586;53.616;10.032;2023-07-31T04:39:48;2.90;;;1.80;;
10872;SDS011;34586;53.616;10.032;2023-07-31T04:42:14;2.97;;;1.70;;
10872;SDS011;34586;53.616;10.032;2023-07-31T04:44:39;3.97;;;1.87;;
10872;SDS011;34586;53.616;10.032;2023-07-31T04:47:05;3.10;;;1.50;;
10872;SDS011;34586;53.616;10.032;2023-07-31T04:49:31;2.87;;;1.50;;
10872;SDS011;34586;53.616;10.032;2023-07-31T04:51:57;1.70;;;1.60;;
10872;SDS011;34586;53.616;10.032;2023-07-31T04:54:23;1.47;;;1.37;;
10872;SDS011;34586;53.616;10.032;2023-07-31T04:56:49;3.40;;;1.50;;
10872;SDS011;34586;53.616;10.032;2023-07-31T04:59:14;1.50;;;1.40;;
10872;SDS011;34586;53.616;10.032;2023-07-31T05:01:40;1.07;;;0.90;;
10872;SDS011;34586;53.616;10.032;2023-07-31T05:04:05;2.20;;;1.10;;
10872;SDS011;34586;53.616;10.032;2023-07-31T05:06:32;3.90;;;1.30;;
10872;SDS011;34586;53.616;10.032;2023-07-31T05:08:57;1.43;;;1.10;;
10872;SDS011;34586;53.616;10.032;2023-07-31T05:11:23;3.37;;;1.30;;
10872;SDS011;34586;53.616;10.032;2023-07-31T05:13:48;1.23;;;1.17;;
10872;SDS011;34586;53.616;10.032;2023-07-31T05:16:14;1.87;;;1.03;;
10872;SDS011;34586;53.616;10.032;2023-07-31T05:18:39;1.77;;;1.20;;
10872;SDS011;34586;53.616;10.032;2023-07-31T05:21:05;2.43;;;1.10;;
10872;SDS011;34586;53.616;10.032;2023-07-31T05:23:31;1.53;;;1.43;;
10872;SDS011;34586;53.616;10.032;2023-07-31T05:26:07;1.70;;;1.10;;
10872;SDS011;34586;53.616;10.032;2023-07-31T05:28:34;1.10;;;1.10;;
10872;SDS011;34586;53.616;10.032;2023-07-31T05:31:01;2.93;;;1.13;;
10872;SDS011;34586;53.616;10.032;2023-07-31T05:33:30;1.77;;;1.40;;
10872;SDS011;34586;53.616;10.032;2023-07-31T05:35:56;1.70;;;1.60;;
10872;SDS011;34586;53.616;10.032;2023-07-31T05:38:21;1.60;;;1.50;;
10872;SDS011;34586;53.616;10.032;2023-07-31T05:40:47;1.23;;;1.13;;
10872;SDS011;34586;53.616;10.032;2023-07-31T05:43:13;1.00;;;1.00;;
10872;SDS011;34586;53.616;10.032;2023-07-31T05:45:39;1.30;;;1.20;;
10872;SDS011;34586;53.616;10.032;2023-07-31T05:48:05;1.13;;;1.13;;
10872;SDS011;34586;53.616;10.032;2023-07-31T05:50:31;1.30;;;1.20;;
10872;SDS011;34586;53.616;10.032;2023-07-31T05:52:57;1.97;;;1.13;;
10872;SDS011;34586;53.616;10.032;2023-07-31T05:55:22;1.33;;;1.20;;
10872;SDS011;34586;53.616;10.032;2023-07-31T05:57:49;1.20;;;1.10;;
10872;SDS011;34586;53.616;10.032;2023-07-31T06:00:14;1.53;;;1.20;;
10872;SDS011;34586;53.616;10.032;2023-07-31T06:02:40;1.20;;;1.10;;
10872;SDS011;34586;53.616;10.032;2023-07-31T06:05:06;1.20;;;1.10;;
10872;SDS011;34586;53.616;10.032;2023-07-31T06:07:32;1.50;;;1.40;;
10872;SDS011;34586;53.616;10.032;2023-07-31T06:09:57;1.17;;;1.13;;
10872;SDS011;34586;53.616;10.032;2023-07-31T06:12:29;1.23;;;1.13;;
10872;SDS011;34586;53.616;10.032;2023-07-31T06:14:55;1.30;;;1.20;;
10872;SDS011;34586;53.616;10.032;2023-07-31T06:17:20;1.50;;;1.40;;
10872;SDS011;34586;53.616;10.032;2023-07-31T06:19:46;1.07;;;1.00;;
10872;SDS011;34586;53.616;10.032;2023-07-31T06:22:12;2.03;;;1.20;;
10872;SDS011;34586;53.616;10.032;2023-07-31T06:24:37;0.93;;;0.93;;
10872;SDS011;34586;53.616;10.032;2023-07-31T06:27:03;1.13;;;1.03;;
10872;SDS011;34586;53.616;10.032;2023-07-31T06:29:30;2.07;;;1.30;;
10872;SDS011;34586;53.616;10.032;2023-07-31T06:31:55;1.37;;;1.03;;
10872;SDS011;34586;53.616;10.032;2023-07-31T06:34:21;1.57;;;1.47;;
10872;SDS011;34586;53.616;10.032;2023-07-31T06:36:47;1.53;;;1.07;;
10872;SDS011;34586;53.616;10.032;2023-07-31T06:39:12;1.67;;;1.10;;
10872;SDS011;34586;53.616;10.032;2023-07-31T06:41:38;1.90;;;1.30;;
10872;SDS011;34586;53.616;10.032;2023-07-31T06:44:04;1.60;;;1.10;;
10872;SDS011;34586;53.616;10.032;2023-07-31T06:46:29;1.10;;;1.00;;
10872;SDS011;34586;53.616;10.032;2023-07-31T06:48:55;1.20;;;1.00;;
10872;SDS011;34586;53.616;10.032;2023-07-31T06:51:21;3.03;;;1.10;;
10872;SDS011;34586;53.616;10.032;2023-07-31T06:53:46;2.40;;;0.90;;
10872;SDS011;34586;53.616;10.032;2023-07-31T06:56:12;1.20;;;1.07;;
10872;SDS011;34586;53.616;10.032;2023-07-31T06:58:38;1.33;;;1.23;;
10872;SDS011;34586;53.616;10.032;2023-07-31T07:01:04;1.30;;;1.20;;
10872;SDS011;34586;53.616;10.032;2023-07-31T07:03:29;1.00;;;1.00;;
10872;SDS011;34586;53.616;10.032;2023-07-31T07:05:55;1.50;;;1.27;;
10872;SDS011;34586;53.616;10.032;2023-07-31T07:08:21;1.10;;;1.10;;
10872;SDS011;34586;53.616;10.032;2023-07-31T07:10:46;2.77;;;1.13;;
10872;SDS011;34586;53.616;10.032;2023-07-31T07:13:12;1.20;;;1.10;;
10872;SDS011;34586;53.616;10.032;2023-07-31T07:15:38;1.10;;;0.93;;
10872;SDS011;34586;53.616;10.032;2023-07-31T07:18:04;1.47;;;0.97;;
10872;SDS011;34586;53.616;10.032;2023-07-31T07:20:30;1.77;;;1.20;;
10872;SDS011;34586;53.616;10.032;2023-07-31T07:22:55;1.67;;;1.10;;
10872;SDS011;34586;53.616;10.032;2023-07-31T07:25:21;1.07;;;1.07;;
10872;SDS011;34586;53.616;10.032;2023-07-31T07:27:46;1.33;;;1.27;;
10872;SDS011;34586;53.616;10.032;2023-07-31T07:30:12;0.93;;;0.93;;
10872;SDS011;34586;53.616;10.032;2023-07-31T07:32:39;0.90;;;0.90;;
10872;SDS011;34586;53.616;10.032;2023-07-31T07:35:05;0.90;;;0.90;;
10872;SDS011;34586;53.616;10.032;2023-07-31T07:37:31;1.13;;;1.10;;
10872;SDS011;34586;53.616;10.032;2023-07-31T07:39:56;0.80;;;0.80;;
10872;SDS011;34586;53.616;10.032;2023-07-31T07:42:22;0.80;;;0.80;;
10872;SDS011;34586;53.616;10.032;2023-07-31T07:44:48;1.73;;;0.90;;
10872;SDS011;34586;53.616;10.032;2023-07-31T07:47:14;0.83;;;0.83;;
10872;SDS011;34586;53.616;10.032;2023-07-31T07:49:39;1.00;;;0.70;;
10872;SDS011;34586;53.616;10.032;2023-07-31T07:52:05;1.07;;;0.97;;
10872;SDS011;34586;53.616;10.032;2023-07-31T07:54:31;0.80;;;0.80;;
10872;SDS011;34586;53.616;10.032;2023-07-31T07:56:57;0.80;;;0.80;;
10872;SDS011;34586;53.616;10.032;2023-07-31T07:59:22;0.80;;;0.80;;
10872;SDS011;34586;53.616;10.032;2023-07-31T08:01:48;0.80;;;0.80;;
10872;SDS011;34586;53.616;10.032;2023-07-31T08:04:13;2.47;;;0.80;;
10872;SDS011;34586;53.616;10.032;2023-07-31T08:06:39;0.80;;;0.80;;
10872;SDS011;34586;53.616;10.032;2023-07-31T08:09:05;1.40;;;1.00;;
10872;SDS011;34586;53.616;10.032;2023-07-31T08:11:31;0.87;;;0.80;;
10872;SDS011;34586;53.616;10.032;2023-07-31T08:13:57;0.90;;;0.90;;
10872;SDS011;34586;53.616;10.032;2023-07-31T08:16:23;1.80;;;0.70;;
10872;SDS011;34586;53.616;10.032;2023-07-31T08:18:48;0.80;;;0.80;;
10872;SDS011;34586;53.616;10.032;2023-07-31T08:21:14;0.80;;;0.80;;
10872;SDS011;34586;53.616;10.032;2023-07-31T08:23:40;1.57;;;0.90;;
10872;SDS011;34586;53.616;10.032;2023-07-31T08:26:05;0.90;;;0.90;;
10872;SDS011;34586;53.616;10.032;2023-07-31T08:28:31;0.70;;;0.70;;
10872;SDS011;34586;53.616;10.032;2023-07-31T08:30:57;0.80;;;0.80;;
10872;SDS011;34586;53.616;10.032;2023-07-31T08:33:23;0.70;;;0.70;;
10872;SDS011;34586;53.616;10.032;2023-07-31T08:35:48;2.00;;;0.67;;
10872;SDS011;34586;53.616;10.032;2023-07-31T08:38:14;0.60;;;0.60;;
10872;SDS011;34586;53.616;10.032;2023-07-31T08:40:40;1.73;;;0.70;;
10872;SDS011;34586;53.616;10.032;2023-07-31T08:43:05;0.60;;;0.60;;
10872;SDS011;34586;53.616;10.032;2023-07-31T08:45:32;1.20;;;0.60;;
10872;SDS011;34586;53.616;10.032;2023-07-31T08:47:59;0.40;;;0.40;;
10872;SDS011;34586;53.616;10.032;2023-07-31T08:50:24;0.53;;;0.53;;
10872;SDS011;34586;53.616;10.032;2023-07-31T08:52:51;0.50;;;0.50;;
10872;SDS011;34586;53.616;10.032;2023-07-31T08:55:17;0.70;;;0.70;;
10872;SDS011;34586;53.616;10.032;2023-07-31T08:57:48;0.40;;;0.40;;
10872;SDS011;34586;53.616;10.032;2023-07-31T09:00:16;0.43;;;0.43;;
10872;SDS011;34586;53.616;10.032;2023-07-31T09:02:46;1.93;;;0.60;;
10872;SDS011;34586;53.616;10.032;2023-07-31T09:05:29;0.43;;;0.40;;
10872;SDS011;34586;53.616;10.032;2023-07-31T09:07:56;0.53;;;0.40;;
10872;SDS011;34586;53.616;10.032;2023-07-31T09:10:23;0.50;;;0.40;;
10872;SDS011;34586;53.616;10.032;2023-07-31T09:12:50;0.80;;;0.67;;
10872;SDS011;34586;53.616;10.032;2023-07-31T09:15:16;1.37;;;0.40;;
10872;SDS011;34586;53.616;10.032;2023-07-31T09:17:42;0.30;;;0.30;;
10872;SDS011;34586;53.616;10.032;2023-07-31T09:22:43;0.40;;;0.40;;
10872;SDS011;34586;53.616;10.032;2023-07-31T09:25:20;0.57;;;0.40;;
10872;SDS011;34586;53.616;10.032;2023-07-31T09:27:52;0.70;;;0.50;;
10872;SDS011;34586;53.616;10.032;2023-07-31T09:30:20;2.00;;;0.60;;
10872;SDS011;34586;53.616;10.032;2023-07-31T09:32:46;0.63;;;0.43;;
10872;SDS011;34586;53.616;10.032;2023-07-31T09:35:26;0.70;;;0.53;;
10872;SDS011;34586;53.616;10.032;2023-07-31T09:37:55;0.60;;;0.57;;
10872;SDS011;34586;53.616;10.032;2023-07-31T09:42:59;0.40;;;0.40;;
10872;SDS011;34586;53.616;10.032;2023-07-31T09:45:38;0.97;;;0.60;;
10872;SDS011;34586;53.616;10.032;2023-07-31T09:48:10;0.67;;;0.63;;
10872;SDS011;34586;53.616;10.032;2023-07-31T09:50:38;1.07;;;0.60;;
10872;SDS011;34586;53.616;10.032;2023-07-31T09:53:05;0.70;;;0.70;;
10872;SDS011;34586;53.616;10.032;2023-07-31T09:55:32;0.87;;;0.60;;
10872;SDS011;34586;53.616;10.032;2023-07-31T09:57:58;0.60;;;0.40;;
10872;SDS011;34586;53.616;10.032;2023-07-31T10:00:24;0.50;;;0.50;;
10872;SDS011;34586;53.616;10.032;2023-07-31T10:02:52;1.07;;;0.63;;
10872;SDS011;34586;53.616;10.032;2023-07-31T10:05:19;0.73;;;0.73;;
10872;SDS011;34586;53.616;10.032;2023-07-31T10:07:49;2.10;;;0.40;;
10872;SDS011;34586;53.616;10.032;2023-07-31T10:10:18;0.50;;;0.50;;
10872;SDS011;34586;53.616;10.032;2023-07-31T10:12:46;0.40;;;0.40;;
10872;SDS011;34586;53.616;10.032;2023-07-31T10:15:14;0.40;;;0.40;;
10872;SDS011;34586;53.616;10.032;2023-07-31T10:17:40;0.43;;;0.43;;
10872;SDS011;34586;53.616;10.032;2023-07-31T10:20:06;0.50;;;0.50;;
10872;SDS011;34586;53.616;10.032;2023-07-31T10:22:33;0.50;;;0.50;;
10872;SDS011;34586;53.616;10.032;2023-07-31T10:24:59;0.67;;;0.40;;
10872;SDS011;34586;53.616;10.032;2023-07-31T10:27:25;0.30;;;0.30;;
10872;SDS011;34586;53.616;10.032;2023-07-31T10:29:52;0.60;;;0.43;;
10872;SDS011;34586;53.616;10.032;2023-07-31T10:32:19;0.30;;;0.30;;
10872;SDS011;34586;53.616;10.032;2023-07-31T10:34:46;0.50;;;0.40;;
10872;SDS011;34586;53.616;10.032;2023-07-31T10:40:02;0.70;;;0.30;;
10872;SDS011;34586;53.616;10.032;2023-07-31T10:42:34;0.30;;;0.30;;
10872;SDS011;34586;53.616;10.032;2023-07-31T10:45:09;0.43;;;0.43;;
10872;SDS011;34586;53.616;10.032;2023-07-31T10:47:42;0.20;;;0.20;;
10872;SDS011;34586;53.616;10.032;2023-07-31T10:50:13;0.33;;;0.33;;
10872;SDS011;34586;53.616;10.032;2023-07-31T10:52:45;0.60;;;0.40;;
10872;SDS011;34586;53.616;10.032;2023-07-31T10:55:16;0.30;;;0.30;;
10872;SDS011;34586;53.616;10.032;2023-07-31T10:57:54;0.30;;;0.30;;
10872;SDS011;34586;53.616;10.032;2023-07-31T11:00:28;1.53;;;0.27;;
10872;SDS011;34586;53.616;10.032;2023-07-31T11:03:03;0.20;;;0.20;;
10872;SDS011;34586;53.616;10.032;2023-07-31T11:10:44;0.73;;;0.40;;
10872;SDS011;34586;53.616;10.032;2023-07-31T11:13:11;0.30;;;0.30;;
10872;SDS011;34586;53.616;10.032;2023-07-31T11:15:37;0.20;;;0.20;;
10872;SDS011;34586;53.616;10.032;2023-07-31T11:18:03;0.30;;;0.20;;
10872;SDS011;34586;53.616;10.032;2023-07-31T11:20:30;0.30;;;0.30;;
10872;SDS011;34586;53.616;10.032;2023-07-31T11:23:03;0.30;;;0.30;;
10872;SDS011;34586;53.616;10.032;2023-07-31T11:25:32;0.70;;;0.50;;
10872;SDS011;34586;53.616;10.032;2023-07-31T11:28:04;0.20;;;0.20;;
10872;SDS011;34586;53.616;10.032;2023-07-31T11:30:38;0.40;;;0.30;;
10872;SDS011;34586;53.616;10.032;2023-07-31T11:33:09;0.37;;;0.30;;
10872;SDS011;34586;53.616;10.032;2023-07-31T11:35:40;1.50;;;0.30;;
10872;SDS011;34586;53.616;10.032;2023-07-31T11:38:11;0.47;;;0.40;;
10872;SDS011;34586;53.616;10.032;2023-07-31T11:40:41;0.30;;;0.23;;
10872;SDS011;34586;53.616;10.032;2023-07-31T11:43:07;0.33;;;0.33;;
10872;SDS011;34586;53.616;10.032;2023-07-31T11:45:33;0.50;;;0.30;;
10872;SDS011;34586;53.616;10.032;2023-07-31T11:48:00;2.13;;;0.30;;
10872;SDS011;34586;53.616;10.032;2023-07-31T11:50:26;0.40;;;0.20;;
10872;SDS011;34586;53.616;10.032;2023-07-31T11:53:02;0.20;;;0.20;;
10872;SDS011;34586;53.616;10.032;2023-07-31T11:55:32;1.03;;;0.20;;
10872;SDS011;34586;53.616;10.032;2023-07-31T11:57:58;1.20;;;0.27;;
10872;SDS011;34586;53.616;10.032;2023-07-31T12:00:25;2.33;;;0.40;;
10872;SDS011;34586;53.616;10.032;2023-07-31T12:02:52;0.20;;;0.20;;
10872;SDS011;34586;53.616;10.032;2023-07-31T12:05:18;0.30;;;0.27;;
10872;SDS011;34586;53.616;10.032;2023-07-31T12:07:47;0.53;;;0.30;;
10872;SDS011;34586;53.616;10.032;2023-07-31T12:10:24;0.30;;;0.30;;
10872;SDS011;34586;53.616;10.032;2023-07-31T12:13:06;0.50;;;0.30;;
10872;SDS011;34586;53.616;10.032;2023-07-31T12:15:37;0.30;;;0.30;;
10872;SDS011;34586;53.616;10.032;2023-07-31T12:18:11;1.80;;;0.33;;
10872;SDS011;34586;53.616;10.032;2023-07-31T12:20:44;0.57;;;0.37;;
10872;SDS011;34586;53.616;10.032;2023-07-31T12:23:14;0.80;;;0.23;;
10872;SDS011;34586;53.616;10.032;2023-07-31T12:25:54;1.23;;;0.30;;
10872;SDS011;34586;53.616;10.032;2023-07-31T12:28:42;0.27;;;0.20;;
10872;SDS011;34586;53.616;10.032;2023-07-31T12:31:16;0.50;;;0.30;;
10872;SDS011;34586;53.616;10.032;2023-07-31T12:33:48;0.40;;;0.30;;
10872;SDS011;34586;53.616;10.032;2023-07-31T12:36:20;1.27;;;0.40;;
10872;SDS011;34586;53.616;10.032;2023-07-31T12:38:48;0.57;;;0.30;;
10872;SDS011;34586;53.616;10.032;2023-07-31T12:41:15;0.50;;;0.50;;
10872;SDS011;34586;53.616;10.032;2023-07-31T12:43:41;0.33;;;0.30;;
10872;SDS011;34586;53.616;10.032;2023-07-31T12:46:07;0.40;;;0.40;;
10872;SDS011;34586;53.616;10.032;2023-07-31T12:48:33;0.57;;;0.40;;
10872;SDS011;34586;53.616;10.032;2023-07-31T12:50:59;0.30;;;0.30;;
10872;SDS011;34586;53.616;10.032;2023-07-31T12:53:25;0.20;;;0.20;;
10872;SDS011;34586;53.616;10.032;2023-07-31T12:55:50;0.27;;;0.27;;
10872;SDS011;34586;53.616;10.032;2023-07-31T12:58:16;0.20;;;0.20;;
10872;SDS011;34586;53.616;10.032;2023-07-31T13:00:42;0.30;;;0.30;;
10872;SDS011;34586;53.616;10.032;2023-07-31T13:03:07;0.30;;;0.30;;
10872;SDS011;34586;53.616;10.032;2023-07-31T13:05:33;0.87;;;0.20;;
10872;SDS011;34586;53.616;10.032;2023-07-31T13:07:58;0.73;;;0.20;;
10872;SDS011;34586;53.616;10.032;2023-07-31T13:10:24;0.30;;;0.20;;
10872;SDS011;34586;53.616;10.032;2023-07-31T13:12:51;0.47;;;0.23;;
10872;SDS011;34586;53.616;10.032;2023-07-31T13:15:17;0.10;;;0.10;;
10872;SDS011;34586;53.616;10.032;2023-07-31T13:17:43;0.20;;;0.20;;
10872;SDS011;34586;53.616;10.032;2023-07-31T13:20:08;0.30;;;0.30;;
10872;SDS011;34586;53.616;10.032;2023-07-31T13:22:35;0.70;;;0.30;;
10872;SDS011;34586;53.616;10.032;2023-07-31T13:25:00;0.10;;;0.10;;
10872;SDS011;34586;53.616;10.032;2023-07-31T13:27:26;0.40;;;0.20;;
10872;SDS011;34586;53.616;10.032;2023-07-31T13:29:52;0.93;;;0.20;;
10872;SDS011;34586;53.616;10.032;2023-07-31T13:32:17;0.67;;;0.20;;
10872;SDS011;34586;53.616;10.032;2023-07-31T13:34:44;0.20;;;0.20;;
10872;SDS011;34586;53.616;10.032;2023-07-31T13:37:10;0.27;;;0.27;;
10872;SDS011;34586;53.616;10.032;2023-07-31T13:39:36;0.20;;;0.20;;
10872;SDS011;34586;53.616;10.032;2023-07-31T13:42:02;0.40;;;0.40;;
10872;SDS011;34586;53.616;10.032;2023-07-31T13:44:28;0.20;;;0.20;;
10872;SDS011;34586;53.616;10.032;2023-07-31T13:46:54;0.20;;;0.20;;
10872;SDS011;34586;53.616;10.032;2023-07-31T13:49:19;0.20;;;0.17;;
10872;SDS011;34586;53.616;10.032;2023-07-31T13:51:45;0.30;;;0.20;;
10872;SDS011;34586;53.616;10.032;2023-07-31T13:54:11;0.20;;;0.20;;
10872;SDS011;34586;53.616;10.032;2023-07-31T13:56:37;1.33;;;0.20;;
10872;SDS011;34586;53.616;10.032;2023-07-31T13:59:02;0.23;;;0.20;;
10872;SDS011;34586;53.616;10.032;2023-07-31T14:01:28;0.40;;;0.20;;
10872;SDS011;34586;53.616;10.032;2023-07-31T14:03:54;0.20;;;0.20;;
10872;SDS011;34586;53.616;10.032;2023-07-31T14:06:20;0.20;;;0.20;;
10872;SDS011;34586;53.616;10.032;2023-07-31T14:08:45;0.57;;;0.30;;
10872;SDS011;34586;53.616;10.032;2023-07-31T14:11:11;0.90;;;0.27;;
10872;SDS011;34586;53.616;10.032;2023-07-31T14:13:36;0.20;;;0.20;;
10872;SDS011;34586;53.616;10.032;2023-07-31T14:16:02;0.20;;;0.20;;
10872;SDS011;34586;53.616;10.032;2023-07-31T14:18:27;0.20;;;0.20;;
10872;SDS011;34586;53.616;10.032;2023-07-31T14:20:53;1.53;;;0.20;;
10872;SDS011;34586;53.616;10.032;2023-07-31T14:23:19;0.10;;;0.10;;
10872;SDS011;34586;53.616;10.032;2023-07-31T14:25:45;0.47;;;0.30;;
10872;SDS011;34586;53.616;10.032;2023-07-31T14:28:11;1.90;;;0.30;;
10872;SDS011;34586;53.616;10.032;2023-07-31T14:30:36;0.20;;;0.20;;
10872;SDS011;34586;53.616;10.032;2023-07-31T14:33:02;0.50;;;0.40;;
10872;SDS011;34586;53.616;10.032;2023-07-31T14:35:28;0.70;;;0.37;;
10872;SDS011;34586;53.616;10.032;2023-07-31T14:37:53;1.80;;;0.67;;
10872;SDS011;34586;53.616;10.032;2023-07-31T14:40:19;1.10;;;0.57;;
10872;SDS011;34586;53.616;10.032;2023-07-31T14:42:45;1.07;;;0.77;;
10872;SDS011;34586;53.616;10.032;2023-07-31T14:45:10;0.60;;;0.50;;
10872;SDS011;34586;53.616;10.032;2023-07-31T14:47:36;1.33;;;0.50;;
10872;SDS011;34586;53.616;10.032;2023-07-31T14:50:02;0.77;;;0.40;;
10872;SDS011;34586;53.616;10.032;2023-07-31T14:52:28;0.40;;;0.40;;